Time;durP1;ratioP1;P1;durP2;ratioP2;P2;SDS_P1;SDS_P2;PMS_P1;PMS_P2;Temp;Humidity;BMP_temperature;BMP_pressure;BME280_temperature;BME280_humidity;BME280_pressure;Samples;Min_cycle;Max_cycle;Signal;HPM_P1;HPM_P2
2023/09/18 00:00:22;;;;;;;;;;;;;;;;;;5080067;28;19912;-61
2023/09/18 00:02:47;;;;;;;;;;;;;;;;;;5077545;28;19913;-61
2023/09/18 00:05:15;;;;;;;;;;;;;;;;;;5077583;28;19913;-61
2023/09/18 00:07:40;;;;;;;;;;;;;;;;;;5077534;28;19909;-60
2023/09/18 00:10:06;;;;;;;;;;;;;;;;;;5077107;28;19912;-60
2023/09/18 00:12:31;;;;;;;;;;;;;;;;;;5077564;28;19909;-61
2023/09/18 00:14:56;;;;;;;;;;;;;;;;;;5076178;28;19924;-61
2023/09/18 00:17:22;;;;;;;;;;;;;;;;;;5075475;28;19917;-61
2023/09/18 00:19:48;;;;;;;;;;;;;;;;;;5075782;28;19976;-60
2023/09/18 00:22:13;;;;;;;;;;;;;;;;;;5088677;28;19956;-60
2023/09/18 00:24:39;;;;;;;;;;;;;;;;;;5076053;28;19935;-60
2023/09/18 00:27:04;;;;;;;;;;;;;;;;;;5085848;28;19952;-61
2023/09/18 00:29:30;;;;;;;;;;;;;;;;;;5075755;28;19931;-60
2023/09/18 00:31:55;;;;;;;;;;;;;;;;;;5075313;28;19919;-61
2023/09/18 00:34:21;;;;;;;;;;;;;;;;;;5075592;28;19917;-60
2023/09/18 00:36:47;;;;;;;;;;;;;;;;;;5065232;28;19923;-60
2023/09/18 00:39:12;;;;;;;;;;;;;;;;;;5075559;28;19913;-60
2023/09/18 00:41:38;;;;;;;;;;;;;;;;;;5091068;28;19912;-61
2023/09/18 00:44:04;;;;;;;;;;;;;;;;;;5075559;28;19944;-60
2023/09/18 00:46:29;;;;;;;;;;;;;;;;;;5079386;28;19913;-61
2023/09/18 00:48:55;;;;;;;;;;;;;;;;;;5057993;28;19947;-61
2023/09/18 00:51:20;;;;;;;;;;;;;;;;;;5091065;28;19921;-60
2023/09/18 00:53:48;;;;;;;;;;;;;;;;;;5091401;28;19939;-60
2023/09/18 00:56:14;;;;;;;;;;;;;;;;;;5074919;28;19988;-61
2023/09/18 00:58:40;;;;;;;;;;;;;;;;;;5075330;28;19912;-61
2023/09/18 01:01:05;;;;;;;;;;;;;;;;;;5075317;28;19917;-61
2023/09/18 01:03:31;;;;;;;;;;;;;;;;;;5057831;28;20015;-60
2023/09/18 01:05:59;;;;;;;;;;;;;;;;;;5102164;28;19913;-61
2023/09/18 01:08:25;;;;;;;;;;;;;;;;;;5083272;28;19913;-60
2023/09/18 01:10:50;;;;;;;;;;;;;;;;;;5075048;28;19948;-60
2023/09/18 01:13:17;;;;;;;;;;;;;;;;;;5074912;28;19913;-62
2023/09/18 01:15:44;;;;;;;;;;;;;;;;;;5090614;28;19928;-61
2023/09/18 01:18:09;;;;;;;;;;;;;;;;;;5082082;28;19923;-61
2023/09/18 01:20:34;;;;;;;;;;;;;;;;;;5090583;28;19913;-61
2023/09/18 01:23:00;;;;;;;;;;;;;;;;;;5098624;28;19928;-61
2023/09/18 01:25:25;;;;;;;;;;;;;;;;;;5094118;28;19913;-61
2023/09/18 01:27:52;;;;;;;;;;;;;;;;;;5062689;28;19939;-59
2023/09/18 01:30:18;;;;;;;;;;;;;;;;;;5090569;28;19955;-61
2023/09/18 01:32:43;;;;;;;;;;;;;;;;;;5091137;28;19917;-61
2023/09/18 01:35:09;;;;;;;;;;;;;;;;;;5075280;28;19979;-60
2023/09/18 01:37:35;;;;;;;;;;;;;;;;;;5093077;28;19920;-61
2023/09/18 01:40:00;;;;;;;;;;;;;;;;;;5074704;28;20107;-60
2023/09/18 01:42:26;;;;;;;;;;;;;;;;;;5074478;28;19913;-61
2023/09/18 01:44:52;;;;;;;;;;;;;;;;;;5074732;28;19920;-61
2023/09/18 01:47:17;;;;;;;;;;;;;;;;;;5066714;28;19919;-60
2023/09/18 01:49:43;;;;;;;;;;;;;;;;;;5077579;28;19917;-63
2023/09/18 01:52:08;;;;;;;;;;;;;;;;;;5074668;28;19913;-60
2023/09/18 01:54:34;;;;;;;;;;;;;;;;;;5074150;28;19928;-60
2023/09/18 01:56:59;;;;;;;;;;;;;;;;;;5080908;28;19939;-61
2023/09/18 01:59:25;;;;;;;;;;;;;;;;;;5060301;28;19913;-61
2023/09/18 02:01:50;;;;;;;;;;;;;;;;;;5074138;28;19916;-60
2023/09/18 02:04:16;;;;;;;;;;;;;;;;;;5074466;28;19917;-60
2023/09/18 02:06:44;;;;;;;;;;;;;;;;;;5093519;28;19966;-62
2023/09/18 02:09:09;;;;;;;;;;;;;;;;;;5077424;28;19913;-60
2023/09/18 02:11:35;;;;;;;;;;;;;;;;;;5090598;28;19913;-60
2023/09/18 02:14:01;;;;;;;;;;;;;;;;;;5057035;28;19920;-62
2023/09/18 02:16:27;;;;;;;;;;;;;;;;;;5074409;28;19923;-61
2023/09/18 02:18:52;;;;;;;;;;;;;;;;;;5102869;28;19920;-61
2023/09/18 02:21:17;;;;;;;;;;;;;;;;;;5084597;28;19919;-61
2023/09/18 02:23:43;;;;;;;;;;;;;;;;;;5094508;28;19916;-61
2023/09/18 02:26:08;;;;;;;;;;;;;;;;;;5102125;28;19912;-60
2023/09/18 02:28:34;;;;;;;;;;;;;;;;;;5099730;28;19947;-61
2023/09/18 02:30:59;;;;;;;;;;;;;;;;;;5097225;28;19912;-60
2023/09/18 02:33:25;;;;;;;;;;;;;;;;;;5097105;28;19913;-60
2023/09/18 02:35:50;;;;;;;;;;;;;;;;;;5102055;28;19920;-60
2023/09/18 02:38:17;;;;;;;;;;;;;;;;;;5100793;28;19913;-62
2023/09/18 02:40:42;;;;;;;;;;;;;;;;;;5098020;28;19947;-62
2023/09/18 02:43:07;;;;;;;;;;;;;;;;;;5097167;28;19924;-60
2023/09/18 02:45:33;;;;;;;;;;;;;;;;;;5098638;28;19948;-61
2023/09/18 02:47:59;;;;;;;;;;;;;;;;;;5107202;28;19912;-61
2023/09/18 02:50:24;;;;;;;;;;;;;;;;;;5097789;28;19968;-60
2023/09/18 02:52:50;;;;;;;;;;;;;;;;;;5097555;28;19919;-62
2023/09/18 02:55:15;;;;;;;;;;;;;;;;;;5096649;28;19931;-62
2023/09/18 02:57:41;;;;;;;;;;;;;;;;;;5101949;28;19923;-60
2023/09/18 03:00:06;;;;;;;;;;;;;;;;;;5096736;28;19936;-60
2023/09/18 03:02:31;;;;;;;;;;;;;;;;;;5099127;28;19908;-60
2023/09/18 03:04:57;;;;;;;;;;;;;;;;;;5095679;28;19916;-61
2023/09/18 03:07:23;;;;;;;;;;;;;;;;;;5094030;28;19939;-61
2023/09/18 03:09:48;;;;;;;;;;;;;;;;;;5096539;28;19912;-62
2023/09/18 03:12:14;;;;;;;;;;;;;;;;;;5097195;28;19931;-63
2023/09/18 03:14:39;;;;;;;;;;;;;;;;;;5096538;28;19951;-62
2023/09/18 03:17:05;;;;;;;;;;;;;;;;;;5096161;28;19935;-60
2023/09/18 03:19:33;;;;;;;;;;;;;;;;;;5096393;28;21313;-61
2023/09/18 03:21:58;;;;;;;;;;;;;;;;;;5096103;28;19912;-60
2023/09/18 03:24:23;;;;;;;;;;;;;;;;;;5096951;28;19934;-60
2023/09/18 03:26:49;;;;;;;;;;;;;;;;;;5096082;28;19912;-60
2023/09/18 03:29:14;;;;;;;;;;;;;;;;;;5104417;28;19912;-62
2023/09/18 03:31:40;;;;;;;;;;;;;;;;;;5096123;28;19955;-61
2023/09/18 03:34:06;;;;;;;;;;;;;;;;;;5096056;28;19988;-60
2023/09/18 03:36:31;;;;;;;;;;;;;;;;;;5085777;28;19967;-61
2023/09/18 03:38:57;;;;;;;;;;;;;;;;;;5100937;28;19912;-60
2023/09/18 03:41:22;;;;;;;;;;;;;;;;;;5095826;28;19947;-61
2023/09/18 03:43:49;;;;;;;;;;;;;;;;;;5095634;28;19944;-60
2023/09/18 03:46:14;;;;;;;;;;;;;;;;;;5097496;28;19913;-61
2023/09/18 03:48:44;;;;;;;;;;;;;;;;;;5104784;28;19917;-61
2023/09/18 03:51:12;;;;;;;;;;;;;;;;;;5096465;28;19976;-62
2023/09/18 03:53:37;;;;;;;;;;;;;;;;;;5096734;28;19930;-61
2023/09/18 03:56:03;;;;;;;;;;;;;;;;;;5095309;28;19944;-60
2023/09/18 03:58:28;;;;;;;;;;;;;;;;;;5104526;28;19940;-60
2023/09/18 04:00:54;;;;;;;;;;;;;;;;;;5098965;28;19920;-61
2023/09/18 04:03:19;;;;;;;;;;;;;;;;;;5096268;28;19912;-60
2023/09/18 04:05:45;;;;;;;;;;;;;;;;;;5095212;28;19927;-62
2023/09/18 04:08:11;;;;;;;;;;;;;;;;;;5100838;28;19951;-62
2023/09/18 04:10:36;;;;;;;;;;;;;;;;;;5099938;28;19939;-61
2023/09/18 04:13:02;;;;;;;;;;;;;;;;;;5095372;28;19955;-61
2023/09/18 04:15:30;;;;;;;;;;;;;;;;;;5095695;28;19917;-61
2023/09/18 04:17:56;;;;;;;;;;;;;;;;;;5096671;28;19947;-61
2023/09/18 04:20:22;;;;;;;;;;;;;;;;;;5098513;28;19917;-61
2023/09/18 04:22:53;;;;;;;;;;;;;;;;;;5094944;28;19913;-61
2023/09/18 04:25:22;;;;;;;;;;;;;;;;;;5094818;28;19912;-62
2023/09/18 04:27:51;;;;;;;;;;;;;;;;;;5095891;28;19950;-64
2023/09/18 04:30:19;;;;;;;;;;;;;;;;;;5094556;28;19934;-62
2023/09/18 04:32:45;;;;;;;;;;;;;;;;;;5094968;28;19912;-63
2023/09/18 04:35:13;;;;;;;;;;;;;;;;;;5094572;28;19966;-62
2023/09/18 04:37:38;;;;;;;;;;;;;;;;;;5094926;28;19915;-63
2023/09/18 04:41:21;;;;;;;;;;;;;;;;;;5112554;28;20317;-60
2023/09/18 04:43:46;;;;;;;;;;;;;;;;;;5103552;28;19913;-61
2023/09/18 04:46:12;;;;;;;;;;;;;;;;;;5095972;28;19913;-62
2023/09/18 04:48:38;;;;;;;;;;;;;;;;;;5094083;28;19912;-61
2023/09/18 04:51:04;;;;;;;;;;;;;;;;;;5087904;28;19913;-61
2023/09/18 04:53:30;;;;;;;;;;;;;;;;;;5100723;28;19939;-61
2023/09/18 04:55:56;;;;;;;;;;;;;;;;;;5099664;28;19919;-61
2023/09/18 04:58:22;;;;;;;;;;;;;;;;;;5106394;28;19916;-61
2023/09/18 05:00:47;;;;;;;;;;;;;;;;;;5097694;28;19939;-60
2023/09/18 05:03:13;;;;;;;;;;;;;;;;;;5106382;28;19912;-60
2023/09/18 05:05:38;;;;;;;;;;;;;;;;;;5100083;28;20031;-60
2023/09/18 05:08:04;;;;;;;;;;;;;;;;;;5102101;28;19913;-60
2023/09/18 05:10:30;;;;;;;;;;;;;;;;;;5110211;28;19944;-60
2023/09/18 05:12:58;;;;;;;;;;;;;;;;;;5092063;28;19912;-60
2023/09/18 05:15:26;;;;;;;;;;;;;;;;;;5092059;28;19920;-59
2023/09/18 05:17:54;;;;;;;;;;;;;;;;;;5092344;28;19943;-59
2023/09/18 05:20:19;;;;;;;;;;;;;;;;;;5094153;28;19916;-60
2023/09/18 05:22:45;;;;;;;;;;;;;;;;;;5103419;28;19913;-60
2023/09/18 05:25:10;;;;;;;;;;;;;;;;;;5092297;28;19989;-60
2023/09/18 05:27:43;;;;;;;;;;;;;;;;;;5091746;28;19935;-59
2023/09/18 05:30:08;;;;;;;;;;;;;;;;;;5101922;28;19924;-60
2023/09/18 05:32:34;;;;;;;;;;;;;;;;;;5081025;28;19916;-60
2023/09/18 05:35:04;;;;;;;;;;;;;;;;;;5095024;28;19919;-59
2023/09/18 05:37:30;;;;;;;;;;;;;;;;;;5085184;28;19938;-59
2023/09/18 05:39:56;;;;;;;;;;;;;;;;;;5114659;28;19927;-60
2023/09/18 05:42:21;;;;;;;;;;;;;;;;;;5110739;28;19921;-59
2023/09/18 05:44:47;;;;;;;;;;;;;;;;;;5119281;28;19912;-60
2023/09/18 05:47:12;;;;;;;;;;;;;;;;;;5112296;28;19923;-60
2023/09/18 05:49:38;;;;;;;;;;;;;;;;;;5128067;28;19933;-60
2023/09/18 05:52:03;;;;;;;;;;;;;;;;;;5093196;28;19924;-60
2023/09/18 05:54:28;;;;;;;;;;;;;;;;;;5107233;28;19979;-59
2023/09/18 05:56:53;;;;;;;;;;;;;;;;;;5103514;28;19912;-60
2023/09/18 05:59:20;;;;;;;;;;;;;;;;;;5102044;28;19920;-60
2023/09/18 06:01:45;;;;;;;;;;;;;;;;;;5107676;28;19912;-61
2023/09/18 06:04:12;;;;;;;;;;;;;;;;;;5113148;28;19918;-61
2023/09/18 06:06:38;;;;;;;;;;;;;;;;;;5105923;28;19912;-60
2023/09/18 06:09:03;;;;;;;;;;;;;;;;;;5102277;28;19934;-59
2023/09/18 06:11:29;;;;;;;;;;;;;;;;;;5113950;28;19915;-60
2023/09/18 06:13:54;;;;;;;;;;;;;;;;;;5110914;28;19913;-59
2023/09/18 06:16:20;;;;;;;;;;;;;;;;;;5106933;28;19912;-60
2023/09/18 06:18:46;;;;;;;;;;;;;;;;;;5108279;28;19919;-60
2023/09/18 06:21:11;;;;;;;;;;;;;;;;;;5114690;28;19916;-61
2023/09/18 06:23:37;;;;;;;;;;;;;;;;;;5099543;28;19920;-59
2023/09/18 06:26:04;;;;;;;;;;;;;;;;;;5082294;28;19999;-61
2023/09/18 06:28:29;;;;;;;;;;;;;;;;;;5096139;28;19983;-61
2023/09/18 06:30:55;;;;;;;;;;;;;;;;;;5110967;28;19919;-59
2023/09/18 06:33:22;;;;;;;;;;;;;;;;;;5091403;28;19976;-60
2023/09/18 06:35:48;;;;;;;;;;;;;;;;;;5096664;28;19934;-60
2023/09/18 06:38:15;;;;;;;;;;;;;;;;;;5088842;28;19912;-60
2023/09/18 06:40:40;;;;;;;;;;;;;;;;;;5099021;28;19917;-60
2023/09/18 06:43:05;;;;;;;;;;;;;;;;;;5083842;28;19919;-59
2023/09/18 06:45:33;;;;;;;;;;;;;;;;;;5092352;28;19923;-57
2023/09/18 06:47:58;;;;;;;;;;;;;;;;;;5107761;28;19958;-56
2023/09/18 06:50:24;;;;;;;;;;;;;;;;;;5096144;28;19917;-58
2023/09/18 06:52:50;;;;;;;;;;;;;;;;;;5104217;28;19951;-56
2023/09/18 06:55:16;;;;;;;;;;;;;;;;;;5109200;28;19919;-58
2023/09/18 06:57:42;;;;;;;;;;;;;;;;;;5116299;28;19943;-56
2023/09/18 07:00:08;;;;;;;;;;;;;;;;;;5113185;28;19916;-57
2023/09/18 07:02:33;;;;;;;;;;;;;;;;;;5108281;28;19913;-57
2023/09/18 07:04:59;;;;;;;;;;;;;;;;;;5106460;28;19920;-58
2023/09/18 07:07:25;;;;;;;;;;;;;;;;;;5116188;28;19923;-54
2023/09/18 07:09:50;;;;;;;;;;;;;;;;;;5100137;28;19935;-57
2023/09/18 07:12:18;;;;;;;;;;;;;;;;;;5101703;28;19916;-57
2023/09/18 07:14:43;;;;;;;;;;;;;;;;;;5108864;28;19916;-58
2023/09/18 07:17:09;;;;;;;;;;;;;;;;;;5107832;28;19912;-58
2023/09/18 07:19:35;;;;;;;;;;;;;;;;;;5099780;28;19979;-58
2023/09/18 07:22:01;;;;;;;;;;;;;;;;;;5114080;28;19915;-55
2023/09/18 07:24:26;;;;;;;;;;;;;;;;;;5115263;28;19920;-58
2023/09/18 07:26:52;;;;;;;;;;;;;;;;;;5086109;28;19916;-57
2023/09/18 07:29:17;;;;;;;;;;;;;;;;;;5094815;28;19955;-56
2023/09/18 07:31:43;;;;;;;;;;;;;;;;;;5108911;28;19912;-56
2023/09/18 07:34:08;;;;;;;;;;;;;;;;;;5095801;28;19916;-57
2023/09/18 07:36:34;;;;;;;;;;;;;;;;;;5098180;28;19912;-58
2023/09/18 07:38:59;;;;;;;;;;;;;;;;;;5111803;28;19942;-58
2023/09/18 07:41:25;;;;;;;;;;;;;;;;;;5096896;28;19971;-59
2023/09/18 07:43:50;;;;;;;;;;;;;;;;;;5115379;28;19919;-58
2023/09/18 07:46:16;;;;;;;;;;;;;;;;;;5105172;28;19909;-58
2023/09/18 07:48:42;;;;;;;;;;;;;;;;;;5115365;28;19916;-57
2023/09/18 07:51:08;;;;;;;;;;;;;;;;;;5114488;28;19972;-58
2023/09/18 07:53:33;;;;;;;;;;;;;;;;;;5115104;28;19920;-58
2023/09/18 07:55:58;;;;;;;;;;;;;;;;;;5107585;28;19990;-57
2023/09/18 07:58:27;;;;;;;;;;;;;;;;;;5114972;28;19919;-58
2023/09/18 08:00:53;;;;;;;;;;;;;;;;;;5110784;28;19920;-56
2023/09/18 08:03:19;;;;;;;;;;;;;;;;;;5104075;28;19983;-57
2023/09/18 08:05:45;;;;;;;;;;;;;;;;;;5111684;28;19913;-58
2023/09/18 08:08:10;;;;;;;;;;;;;;;;;;5106260;28;19980;-57
2023/09/18 08:10:37;;;;;;;;;;;;;;;;;;5098182;28;19913;-58
2023/09/18 08:13:03;;;;;;;;;;;;;;;;;;5115209;28;19979;-57
2023/09/18 08:15:29;;;;;;;;;;;;;;;;;;5112743;28;19934;-57
2023/09/18 08:17:54;;;;;;;;;;;;;;;;;;5095386;28;19912;-57
2023/09/18 08:20:20;;;;;;;;;;;;;;;;;;5094932;28;19943;-56
2023/09/18 08:22:47;;;;;;;;;;;;;;;;;;5105637;28;19920;-56
2023/09/18 08:25:12;;;;;;;;;;;;;;;;;;5095282;28;19921;-56
2023/09/18 08:27:41;;;;;;;;;;;;;;;;;;5095272;28;19912;-57
2023/09/18 08:30:06;;;;;;;;;;;;;;;;;;5116543;28;19960;-58
2023/09/18 08:32:33;;;;;;;;;;;;;;;;;;5102134;28;19939;-58
2023/09/18 08:35:01;;;;;;;;;;;;;;;;;;5094865;28;19912;-59
2023/09/18 08:37:26;;;;;;;;;;;;;;;;;;5094900;28;19913;-58
2023/09/18 08:39:51;;;;;;;;;;;;;;;;;;5096839;28;19926;-59
2023/09/18 08:42:18;;;;;;;;;;;;;;;;;;5098916;28;19919;-59
2023/09/18 08:44:43;;;;;;;;;;;;;;;;;;5095065;28;19927;-57
2023/09/18 08:47:09;;;;;;;;;;;;;;;;;;5095272;28;19916;-57
2023/09/18 08:49:35;;;;;;;;;;;;;;;;;;5095398;28;19912;-57
2023/09/18 08:52:00;;;;;;;;;;;;;;;;;;5096150;28;19955;-58
2023/09/18 08:54:28;;;;;;;;;;;;;;;;;;5095088;28;19955;-56
2023/09/18 08:56:53;;;;;;;;;;;;;;;;;;5094691;28;19912;-59
2023/09/18 08:59:19;;;;;;;;;;;;;;;;;;5111828;28;19924;-57
2023/09/18 09:01:44;;;;;;;;;;;;;;;;;;5102870;28;19920;-60
2023/09/18 09:04:09;;;;;;;;;;;;;;;;;;5099690;28;19976;-55
2023/09/18 09:06:35;;;;;;;;;;;;;;;;;;5094830;28;19934;-58
2023/09/18 09:09:02;;;;;;;;;;;;;;;;;;5095053;28;19948;-58
2023/09/18 09:11:27;;;;;;;;;;;;;;;;;;5099116;28;19912;-55
2023/09/18 09:13:53;;;;;;;;;;;;;;;;;;5099299;28;19912;-57
2023/09/18 09:16:19;;;;;;;;;;;;;;;;;;5094921;28;19979;-58
2023/09/18 09:18:45;;;;;;;;;;;;;;;;;;5094625;28;19919;-57
2023/09/18 09:21:10;;;;;;;;;;;;;;;;;;5095204;28;19921;-58
2023/09/18 09:23:36;;;;;;;;;;;;;;;;;;5101325;28;19913;-55
2023/09/18 09:26:01;;;;;;;;;;;;;;;;;;5105772;28;19912;-57
2023/09/18 09:28:26;;;;;;;;;;;;;;;;;;5098331;28;19913;-57
2023/09/18 09:30:52;;;;;;;;;;;;;;;;;;5107493;28;19915;-58
2023/09/18 09:33:18;;;;;;;;;;;;;;;;;;5115861;28;19912;-56
2023/09/18 09:35:43;;;;;;;;;;;;;;;;;;5134491;28;19912;-57
2023/09/18 09:38:09;;;;;;;;;;;;;;;;;;5116624;28;19916;-59
2023/09/18 09:40:35;;;;;;;;;;;;;;;;;;5111920;28;20002;-58
2023/09/18 09:43:00;;;;;;;;;;;;;;;;;;5109758;28;19923;-56
2023/09/18 09:45:26;;;;;;;;;;;;;;;;;;5098471;28;19912;-58
2023/09/18 09:47:53;;;;;;;;;;;;;;;;;;5098938;28;19920;-58
2023/09/18 09:50:18;;;;;;;;;;;;;;;;;;5098499;28;19981;-57
2023/09/18 09:52:44;;;;;;;;;;;;;;;;;;5107308;28;19935;-57
2023/09/18 09:55:09;;;;;;;;;;;;;;;;;;5098681;28;19919;-57
2023/09/18 09:57:35;;;;;;;;;;;;;;;;;;5081617;28;19980;-57
2023/09/18 10:00:00;;;;;;;;;;;;;;;;;;5098168;28;19916;-57
2023/09/18 10:02:26;;;;;;;;;;;;;;;;;;5103568;28;19916;-57
2023/09/18 10:04:51;;;;;;;;;;;;;;;;;;5098235;28;19912;-57
2023/09/18 10:07:17;;;;;;;;;;;;;;;;;;5098943;28;19935;-56
2023/09/18 10:09:43;;;;;;;;;;;;;;;;;;5098107;28;19924;-57
2023/09/18 10:12:09;;;;;;;;;;;;;;;;;;5100114;28;19912;-57
2023/09/18 10:14:35;;;;;;;;;;;;;;;;;;5097895;28;19912;-53
2023/09/18 10:17:00;;;;;;;;;;;;;;;;;;5114255;28;19926;-55
2023/09/18 10:19:28;;;;;;;;;;;;;;;;;;5097118;28;19943;-59
2023/09/18 10:21:54;;;;;;;;;;;;;;;;;;5110189;28;19968;-57
2023/09/18 10:24:19;;;;;;;;;;;;;;;;;;5108889;28;19912;-57
2023/09/18 10:26:46;;;;;;;;;;;;;;;;;;5110971;28;19987;-55
2023/09/18 10:29:12;;;;;;;;;;;;;;;;;;5105125;28;19922;-57
2023/09/18 10:31:40;;;;;;;;;;;;;;;;;;5116012;28;19912;-57
2023/09/18 10:34:06;;;;;;;;;;;;;;;;;;5116832;28;19924;-57
2023/09/18 10:36:31;;;;;;;;;;;;;;;;;;5116362;28;19912;-57
2023/09/18 10:38:57;;;;;;;;;;;;;;;;;;5106713;28;19912;-55
2023/09/18 10:41:24;;;;;;;;;;;;;;;;;;5091552;28;19920;-58
2023/09/18 10:43:50;;;;;;;;;;;;;;;;;;5112068;28;19916;-56
2023/09/18 10:46:15;;;;;;;;;;;;;;;;;;5130882;28;19990;-57
2023/09/18 10:48:41;;;;;;;;;;;;;;;;;;5101119;28;19950;-56
2023/09/18 10:51:06;;;;;;;;;;;;;;;;;;5108620;28;19921;-57
2023/09/18 10:53:32;;;;;;;;;;;;;;;;;;5116170;28;19940;-58
2023/09/18 10:55:58;;;;;;;;;;;;;;;;;;5116025;28;19919;-58
2023/09/18 10:58:25;;;;;;;;;;;;;;;;;;5115706;28;19919;-58
2023/09/18 11:00:50;;;;;;;;;;;;;;;;;;5113535;28;19932;-57
2023/09/18 11:03:17;;;;;;;;;;;;;;;;;;5104946;28;19979;-57
2023/09/18 11:05:42;;;;;;;;;;;;;;;;;;5114898;28;19920;-57
2023/09/18 11:08:08;;;;;;;;;;;;;;;;;;5115853;28;19979;-55
2023/09/18 11:10:33;;;;;;;;;;;;;;;;;;5113612;28;19924;-57
2023/09/18 11:12:58;;;;;;;;;;;;;;;;;;5104180;28;19990;-55
2023/09/18 11:15:24;;;;;;;;;;;;;;;;;;5112166;28;19988;-58
2023/09/18 11:17:49;;;;;;;;;;;;;;;;;;5099350;28;19913;-54
2023/09/18 11:20:15;;;;;;;;;;;;;;;;;;5097154;28;19916;-58
2023/09/18 11:22:40;;;;;;;;;;;;;;;;;;5105101;28;19934;-57
2023/09/18 11:25:06;;;;;;;;;;;;;;;;;;5115633;28;19912;-56
2023/09/18 11:27:31;;;;;;;;;;;;;;;;;;5108189;28;19916;-56
2023/09/18 11:29:57;;;;;;;;;;;;;;;;;;5095830;28;19914;-55
2023/09/18 11:32:22;;;;;;;;;;;;;;;;;;5095769;28;19979;-54
2023/09/18 11:34:52;;;;;;;;;;;;;;;;;;5096679;28;19912;-58
2023/09/18 11:37:18;;;;;;;;;;;;;;;;;;5096336;28;20000;-58
2023/09/18 11:39:45;;;;;;;;;;;;;;;;;;5097331;28;19917;-55
2023/09/18 11:42:10;;;;;;;;;;;;;;;;;;5105100;28;19944;-58
2023/09/18 11:44:40;;;;;;;;;;;;;;;;;;5101523;28;19924;-57
2023/09/18 11:47:07;;;;;;;;;;;;;;;;;;5096721;28;19913;-56
2023/09/18 11:49:32;;;;;;;;;;;;;;;;;;5096326;28;19979;-58
2023/09/18 11:51:58;;;;;;;;;;;;;;;;;;5096711;28;19920;-55
2023/09/18 11:54:23;;;;;;;;;;;;;;;;;;5099719;28;19919;-56
2023/09/18 11:56:49;;;;;;;;;;;;;;;;;;5106948;28;19912;-59
2023/09/18 11:59:14;;;;;;;;;;;;;;;;;;5097741;28;19920;-57
2023/09/18 12:01:40;;;;;;;;;;;;;;;;;;5097149;28;19919;-56
2023/09/18 12:04:09;;;;;;;;;;;;;;;;;;5110229;28;19920;-54
2023/09/18 12:06:34;;;;;;;;;;;;;;;;;;5096450;28;19916;-55
2023/09/18 12:09:00;;;;;;;;;;;;;;;;;;5097462;28;19962;-57
2023/09/18 12:11:25;;;;;;;;;;;;;;;;;;5096634;28;19912;-57
2023/09/18 12:13:51;;;;;;;;;;;;;;;;;;5096368;28;19913;-58
2023/09/18 12:16:17;;;;;;;;;;;;;;;;;;5096565;28;19952;-58
2023/09/18 12:18:42;;;;;;;;;;;;;;;;;;5097676;28;19923;-59
2023/09/18 12:21:08;;;;;;;;;;;;;;;;;;5095044;28;19979;-58
2023/09/18 12:23:33;;;;;;;;;;;;;;;;;;5099236;28;19916;-57
2023/09/18 12:25:59;;;;;;;;;;;;;;;;;;5095074;28;19919;-57
2023/09/18 12:28:27;;;;;;;;;;;;;;;;;;5095211;28;19912;-57
2023/09/18 12:30:56;;;;;;;;;;;;;;;;;;5095283;28;19923;-59
2023/09/18 12:33:21;;;;;;;;;;;;;;;;;;5096552;28;19912;-60
2023/09/18 12:35:46;;;;;;;;;;;;;;;;;;5095573;28;19919;-56
2023/09/18 12:38:12;;;;;;;;;;;;;;;;;;5096244;28;19955;-56
2023/09/18 12:40:37;;;;;;;;;;;;;;;;;;5095498;28;19931;-57
2023/09/18 12:43:03;;;;;;;;;;;;;;;;;;5096644;28;19912;-55
2023/09/18 12:45:29;;;;;;;;;;;;;;;;;;5106134;28;19920;-56
2023/09/18 12:47:55;;;;;;;;;;;;;;;;;;5095641;28;19966;-56
2023/09/18 12:50:21;;;;;;;;;;;;;;;;;;5095190;28;19921;-55
2023/09/18 12:52:46;;;;;;;;;;;;;;;;;;5095591;28;19983;-58
2023/09/18 12:55:12;;;;;;;;;;;;;;;;;;5103359;28;19923;-57
2023/09/18 12:57:37;;;;;;;;;;;;;;;;;;5095741;28;19912;-58
2023/09/18 13:00:03;;;;;;;;;;;;;;;;;;5094990;28;19964;-57
2023/09/18 13:02:28;;;;;;;;;;;;;;;;;;5099160;28;19912;-57
2023/09/18 13:04:53;;;;;;;;;;;;;;;;;;5103766;28;19913;-57
2023/09/18 13:07:19;;;;;;;;;;;;;;;;;;5081584;28;19912;-57
2023/09/18 13:09:44;;;;;;;;;;;;;;;;;;5099169;28;19942;-56
2023/09/18 13:12:10;;;;;;;;;;;;;;;;;;5115115;28;19966;-59
2023/09/18 13:14:35;;;;;;;;;;;;;;;;;;5108873;28;19920;-58
2023/09/18 13:17:04;;;;;;;;;;;;;;;;;;5099880;28;19919;-56
2023/09/18 13:19:29;;;;;;;;;;;;;;;;;;5109978;28;19916;-57
2023/09/18 13:21:55;;;;;;;;;;;;;;;;;;5100249;28;19980;-55
2023/09/18 13:24:20;;;;;;;;;;;;;;;;;;5109722;28;19916;-55
2023/09/18 13:26:46;;;;;;;;;;;;;;;;;;5098260;28;19912;-58
2023/09/18 13:29:11;;;;;;;;;;;;;;;;;;5106794;28;19919;-56
2023/09/18 13:31:37;;;;;;;;;;;;;;;;;;5118052;28;19943;-57
2023/09/18 13:34:05;;;;;;;;;;;;;;;;;;5105689;28;20002;-58
2023/09/18 13:36:31;;;;;;;;;;;;;;;;;;5113382;28;19947;-58
2023/09/18 13:38:56;;;;;;;;;;;;;;;;;;5117557;28;19912;-58
2023/09/18 13:41:22;;;;;;;;;;;;;;;;;;5111373;28;19916;-60
2023/09/18 13:43:48;;;;;;;;;;;;;;;;;;5099509;28;19971;-56
2023/09/18 13:46:14;;;;;;;;;;;;;;;;;;5115969;28;19912;-59
2023/09/18 13:48:40;;;;;;;;;;;;;;;;;;5098166;28;19913;-58
2023/09/18 13:51:05;;;;;;;;;;;;;;;;;;5112389;28;19912;-56
2023/09/18 13:53:31;;;;;;;;;;;;;;;;;;5117540;28;19916;-57
2023/09/18 13:55:56;;;;;;;;;;;;;;;;;;5114305;28;19913;-58
2023/09/18 13:58:22;;;;;;;;;;;;;;;;;;5117464;28;19998;-58
2023/09/18 14:00:47;;;;;;;;;;;;;;;;;;5103434;28;19917;-58
2023/09/18 14:03:15;;;;;;;;;;;;;;;;;;5097696;28;19916;-58
2023/09/18 14:05:40;;;;;;;;;;;;;;;;;;5112265;28;19908;-57
2023/09/18 14:08:06;;;;;;;;;;;;;;;;;;5117452;28;19942;-58
2023/09/18 14:10:31;;;;;;;;;;;;;;;;;;5107499;28;19922;-57
2023/09/18 14:12:57;;;;;;;;;;;;;;;;;;5117049;28;19922;-56
2023/09/18 14:15:22;;;;;;;;;;;;;;;;;;5112711;28;19916;-58
2023/09/18 14:17:49;;;;;;;;;;;;;;;;;;5117360;28;20007;-55
2023/09/18 14:20:18;;;;;;;;;;;;;;;;;;5102205;28;19917;-59
2023/09/18 14:22:43;;;;;;;;;;;;;;;;;;5097312;28;19921;-58
2023/09/18 14:25:09;;;;;;;;;;;;;;;;;;5104257;28;19984;-56
2023/09/18 14:27:34;;;;;;;;;;;;;;;;;;5105479;28;19912;-59
2023/09/18 14:30:02;;;;;;;;;;;;;;;;;;5103233;28;20054;-59
2023/09/18 14:32:27;;;;;;;;;;;;;;;;;;5117235;28;19912;-59
2023/09/18 14:34:54;;;;;;;;;;;;;;;;;;5109164;28;19962;-57
2023/09/18 14:37:19;;;;;;;;;;;;;;;;;;5116989;28;19933;-56
2023/09/18 14:39:45;;;;;;;;;;;;;;;;;;5114657;28;19916;-59
2023/09/18 14:42:11;;;;;;;;;;;;;;;;;;5086900;28;19916;-58
2023/09/18 14:44:43;;;;;;;;;;;;;;;;;;5125446;28;19921;-56
2023/09/18 14:47:09;;;;;;;;;;;;;;;;;;5116452;28;19919;-57
2023/09/18 14:49:35;;;;;;;;;;;;;;;;;;5116298;28;19935;-56
2023/09/18 14:52:00;;;;;;;;;;;;;;;;;;5089743;28;19920;-58
2023/09/18 14:54:26;;;;;;;;;;;;;;;;;;5111688;28;19912;-57
2023/09/18 14:56:52;;;;;;;;;;;;;;;;;;5116381;28;19939;-59
2023/09/18 14:59:17;;;;;;;;;;;;;;;;;;5115223;28;19916;-57
2023/09/18 15:01:43;;;;;;;;;;;;;;;;;;5110480;28;19944;-55
2023/09/18 15:04:09;;;;;;;;;;;;;;;;;;5113822;28;19956;-55
2023/09/18 15:06:34;;;;;;;;;;;;;;;;;;5115318;28;19912;-56
2023/09/18 15:08:59;;;;;;;;;;;;;;;;;;5114448;28;19912;-60
2023/09/18 15:11:25;;;;;;;;;;;;;;;;;;5113660;28;19912;-61
2023/09/18 15:13:50;;;;;;;;;;;;;;;;;;5113224;28;19919;-62
2023/09/18 15:16:16;;;;;;;;;;;;;;;;;;5108962;28;19920;-61
2023/09/18 15:18:43;;;;;;;;;;;;;;;;;;5112725;28;19972;-60
2023/09/18 15:21:10;;;;;;;;;;;;;;;;;;5096122;28;19923;-61
2023/09/18 15:23:35;;;;;;;;;;;;;;;;;;5096009;28;19908;-61
2023/09/18 15:26:01;;;;;;;;;;;;;;;;;;5096942;28;19919;-61
2023/09/18 15:28:28;;;;;;;;;;;;;;;;;;5096388;28;19920;-59
2023/09/18 15:30:54;;;;;;;;;;;;;;;;;;5100748;28;19918;-61
2023/09/18 15:33:22;;;;;;;;;;;;;;;;;;5100078;28;19912;-61
2023/09/18 15:35:47;;;;;;;;;;;;;;;;;;5093647;28;19913;-60
2023/09/18 15:38:13;;;;;;;;;;;;;;;;;;5095875;28;19980;-61
2023/09/18 15:40:38;;;;;;;;;;;;;;;;;;5103283;28;19923;-58
2023/09/18 15:43:04;;;;;;;;;;;;;;;;;;5105692;28;19950;-61
2023/09/18 15:45:31;;;;;;;;;;;;;;;;;;5108646;28;20004;-61
2023/09/18 15:47:56;;;;;;;;;;;;;;;;;;5113720;28;19912;-61
2023/09/18 15:50:21;;;;;;;;;;;;;;;;;;5086178;28;19920;-60
2023/09/18 15:52:48;;;;;;;;;;;;;;;;;;5107574;28;19924;-59
2023/09/18 15:55:13;;;;;;;;;;;;;;;;;;5096777;28;19933;-59
2023/09/18 15:57:40;;;;;;;;;;;;;;;;;;5112626;28;19920;-61
2023/09/18 16:00:09;;;;;;;;;;;;;;;;;;5096991;28;19915;-60
2023/09/18 16:02:37;;;;;;;;;;;;;;;;;;5110155;28;19913;-60
2023/09/18 16:05:04;;;;;;;;;;;;;;;;;;5105471;28;19916;-60
2023/09/18 16:07:29;;;;;;;;;;;;;;;;;;5093939;28;19912;-60
2023/09/18 16:09:54;;;;;;;;;;;;;;;;;;5110267;28;19983;-59
2023/09/18 16:12:20;;;;;;;;;;;;;;;;;;5070080;28;19931;-60
2023/09/18 16:14:45;;;;;;;;;;;;;;;;;;5089557;28;20010;-59
2023/09/18 16:17:11;;;;;;;;;;;;;;;;;;5097809;28;19944;-59
2023/09/18 16:19:36;;;;;;;;;;;;;;;;;;5085261;28;19913;-57
2023/09/18 16:22:01;;;;;;;;;;;;;;;;;;5105324;28;19939;-59
2023/09/18 16:24:27;;;;;;;;;;;;;;;;;;5085903;28;19927;-58
2023/09/18 16:26:52;;;;;;;;;;;;;;;;;;5096153;28;19920;-60
2023/09/18 16:29:17;;;;;;;;;;;;;;;;;;5088313;28;19987;-59
2023/09/18 16:31:43;;;;;;;;;;;;;;;;;;5092258;28;19920;-59
2023/09/18 16:34:09;;;;;;;;;;;;;;;;;;5082331;28;19916;-60
2023/09/18 16:36:34;;;;;;;;;;;;;;;;;;5100920;28;19931;-59